createdAt,value
2022-12-25T00:01:55.575Z,4.23
2022-12-25T00:04:16.846Z,5.77
2022-12-25T00:06:38.103Z,3.87
2022-12-25T00:09:00.857Z,3.27
2022-12-25T00:11:22.546Z,3.80
2022-12-25T00:13:44.043Z,5.87
2022-12-25T00:16:06.843Z,6.30
2022-12-25T00:18:27.838Z,6.03
2022-12-25T00:20:56.982Z,6.53
2022-12-25T00:23:17.904Z,4.87
2022-12-25T00:25:42.089Z,5.70
2022-12-25T00:28:03.114Z,6.40
2022-12-25T00:30:24.418Z,6.70
2022-12-25T00:32:45.748Z,4.87
2022-12-25T00:35:07.618Z,3.90
2022-12-25T00:37:28.857Z,7.03
2022-12-25T00:39:50.155Z,5.17
2022-12-25T00:42:21.824Z,7.67
2022-12-25T00:44:42.802Z,7.90
2022-12-25T00:47:04.501Z,7.83
2022-12-25T00:49:25.712Z,8.00
2022-12-25T00:51:46.921Z,7.73
2022-12-25T00:54:08.276Z,7.60
2022-12-25T00:56:29.911Z,7.40
2022-12-25T00:58:52.344Z,8.77
2022-12-25T01:01:14.041Z,6.17
2022-12-25T01:03:35.327Z,5.87
2022-12-25T01:05:57.172Z,3.90
2022-12-25T01:08:18.529Z,4.97
2022-12-25T01:10:38.856Z,7.07
2022-12-25T01:13:00.304Z,6.53
2022-12-25T01:15:23.041Z,6.77
2022-12-25T01:17:44.377Z,8.53
2022-12-25T01:20:05.937Z,7.67
2022-12-25T01:22:27.224Z,7.07
2022-12-25T01:24:48.671Z,7.83
2022-12-25T01:27:10.161Z,6.00
2022-12-25T01:29:31.465Z,8.73
2022-12-25T01:31:54.233Z,11.90
2022-12-25T01:34:15.372Z,11.07
2022-12-25T01:36:36.636Z,9.77
2022-12-25T01:38:57.936Z,8.87
2022-12-25T01:41:20.306Z,8.67
2022-12-25T01:43:56.368Z,7.93
2022-12-25T01:46:17.332Z,7.63
2022-12-25T01:48:40.206Z,10.23
2022-12-25T01:51:03.124Z,8.17
2022-12-25T01:53:25.300Z,8.00
2022-12-25T01:55:48.423Z,9.37
2022-12-25T01:58:09.748Z,8.07
2022-12-25T02:00:31.232Z,10.13
2022-12-25T02:02:52.814Z,9.47
2022-12-25T02:05:19.393Z,11.33
2022-12-25T02:07:41.678Z,9.83
2022-12-25T02:10:02.968Z,11.10
2022-12-25T02:12:25.081Z,8.97
2022-12-25T02:14:48.053Z,10.67
2022-12-25T02:17:12.231Z,9.83
2022-12-25T02:19:44.024Z,8.63
2022-12-25T02:22:14.902Z,9.17
2022-12-25T02:24:42.613Z,9.40
2022-12-25T02:27:08.485Z,10.73
2022-12-25T02:29:34.315Z,10.60
2022-12-25T02:31:59.411Z,9.93
2022-12-25T02:34:22.784Z,7.83
2022-12-25T02:36:46.893Z,9.67
2022-12-25T02:39:28.848Z,11.00
2022-12-25T02:41:50.667Z,7.90
2022-12-25T02:44:32.564Z,6.70
2022-12-25T02:47:13.231Z,7.27
2022-12-25T02:49:53.605Z,6.40
2022-12-25T02:52:34.255Z,7.30
2022-12-25T02:55:15.227Z,7.20
2022-12-25T02:57:55.504Z,13.47
2022-12-25T03:00:34.965Z,12.63
2022-12-25T03:03:16.569Z,10.40
2022-12-25T03:05:56.792Z,10.00
2022-12-25T03:08:20.793Z,9.13
2022-12-25T03:11:01.370Z,10.53
2022-12-25T03:13:24.724Z,8.73
2022-12-25T03:16:03.569Z,9.43
2022-12-25T03:18:27.113Z,10.23
2022-12-25T03:21:05.899Z,9.67
2022-12-25T03:23:47.795Z,8.40
2022-12-25T03:26:27.468Z,4.90
2022-12-25T03:28:48.701Z,3.27
2022-12-25T03:31:14.470Z,3.43
2022-12-25T03:33:45.497Z,5.03
2022-12-25T03:36:09.656Z,5.37
2022-12-25T03:38:52.220Z,8.40
2022-12-25T03:41:35.113Z,4.77
2022-12-25T03:44:18.464Z,4.10
2022-12-25T03:47:04.032Z,4.60
2022-12-25T03:49:45.274Z,3.73
2022-12-25T03:52:25.124Z,4.63
2022-12-25T03:55:04.092Z,4.93
2022-12-25T03:57:43.061Z,2.83
2022-12-25T04:00:22.867Z,3.27
2022-12-25T04:03:01.729Z,4.03
2022-12-25T04:05:41.780Z,6.47
2022-12-25T04:08:20.819Z,4.57
2022-12-25T04:10:59.752Z,3.80
2022-12-25T04:13:39.103Z,3.27
2022-12-25T04:16:17.961Z,3.97
2022-12-25T04:18:56.749Z,6.43
2022-12-25T04:21:37.102Z,5.50
2022-12-25T04:24:16.114Z,6.47
2022-12-25T04:26:55.288Z,6.17
2022-12-25T04:29:34.180Z,7.00
2022-12-25T04:32:12.924Z,5.40
2022-12-25T04:34:51.888Z,6.13
2022-12-25T04:37:14.563Z,6.80
2022-12-25T04:39:35.880Z,7.87
2022-12-25T04:41:57.037Z,5.70
2022-12-25T04:44:18.339Z,5.70
2022-12-25T04:46:39.689Z,7.03
2022-12-25T04:49:00.919Z,7.40
2022-12-25T04:51:23.969Z,12.00
2022-12-25T04:53:46.392Z,8.53
2022-12-25T04:56:07.479Z,8.93
2022-12-25T04:58:28.802Z,7.97
2022-12-25T05:00:49.938Z,8.40
2022-12-25T05:03:11.332Z,7.27
2022-12-25T05:05:32.674Z,7.73
2022-12-25T05:07:54.156Z,8.03
2022-12-25T05:10:17.184Z,7.23
2022-12-25T05:12:38.553Z,10.20
2022-12-25T05:15:00.061Z,7.57
2022-12-25T05:17:21.336Z,7.73
2022-12-25T05:19:43.417Z,7.37
2022-12-25T05:22:04.590Z,8.00
2022-12-25T05:24:26.893Z,7.67
2022-12-25T05:26:49.760Z,7.37
2022-12-25T05:29:10.867Z,5.50
2022-12-25T05:31:32.088Z,5.03
2022-12-25T05:33:53.589Z,5.37
2022-12-25T05:36:14.738Z,5.73
2022-12-25T05:38:35.915Z,7.67
2022-12-25T05:40:57.137Z,5.30
2022-12-25T05:43:20.403Z,5.93
2022-12-25T05:45:41.489Z,5.73
2022-12-25T05:48:04.046Z,8.23
2022-12-25T05:50:25.375Z,11.47
2022-12-25T05:52:46.664Z,9.83
2022-12-25T05:55:08.391Z,9.23
2022-12-25T05:57:29.600Z,5.47
2022-12-25T05:59:51.976Z,5.17
2022-12-25T06:02:13.405Z,4.53
2022-12-25T06:04:34.417Z,4.60
2022-12-25T06:06:55.539Z,6.57
2022-12-25T06:09:16.629Z,6.67
2022-12-25T06:11:37.828Z,6.00
2022-12-25T06:13:58.907Z,6.40
2022-12-25T06:16:21.736Z,7.73
2022-12-25T06:18:47.063Z,6.00
2022-12-25T06:21:09.252Z,5.87
2022-12-25T06:23:30.683Z,5.47
2022-12-25T06:25:51.972Z,6.10
2022-12-25T06:28:13.184Z,6.53
2022-12-25T06:30:34.731Z,5.90
2022-12-25T06:32:57.243Z,6.13
2022-12-25T06:35:18.354Z,6.07
2022-12-25T06:37:39.651Z,5.80
2022-12-25T06:40:00.807Z,5.90
2022-12-25T06:42:22.060Z,6.50
2022-12-25T06:44:43.262Z,7.10
2022-12-25T06:47:04.417Z,7.03
2022-12-25T06:49:27.017Z,8.20
2022-12-25T06:51:48.239Z,6.53
2022-12-25T06:54:09.793Z,6.93
2022-12-25T06:56:31.187Z,7.37
2022-12-25T06:58:53.139Z,6.40
2022-12-25T07:01:18.204Z,7.40
2022-12-25T07:03:39.263Z,6.03
2022-12-25T07:06:01.854Z,6.47
2022-12-25T07:08:23.168Z,7.87
2022-12-25T07:10:44.446Z,7.73
2022-12-25T07:13:05.571Z,7.93
2022-12-25T07:15:26.887Z,6.67
2022-12-25T07:17:48.049Z,9.60
2022-12-25T07:20:09.730Z,8.57
2022-12-25T07:22:32.259Z,8.47
2022-12-25T07:24:53.692Z,8.23
2022-12-25T07:27:15.035Z,8.33
2022-12-25T07:29:36.395Z,9.83
2022-12-25T07:31:57.696Z,12.00
2022-12-25T07:34:19.276Z,12.40
2022-12-25T07:36:40.487Z,10.87
2022-12-25T07:39:03.681Z,10.80
2022-12-25T07:41:24.958Z,12.83
2022-12-25T07:43:46.140Z,12.63
2022-12-25T07:46:07.504Z,10.37
2022-12-25T07:48:28.900Z,10.97
2022-12-25T07:50:49.829Z,10.13
2022-12-25T07:53:11.171Z,9.23
2022-12-25T07:55:33.650Z,9.87
2022-12-25T07:57:54.978Z,8.77
2022-12-25T08:00:16.842Z,8.27
2022-12-25T08:02:38.096Z,8.07
2022-12-25T08:05:00.170Z,7.73
2022-12-25T08:07:21.195Z,8.33
2022-12-25T08:09:42.717Z,9.67
2022-12-25T08:12:05.681Z,12.87
2022-12-25T08:14:27.145Z,7.70
2022-12-25T08:16:48.475Z,7.00
2022-12-25T08:19:10.105Z,6.80
2022-12-25T08:21:31.264Z,6.23
2022-12-25T08:23:52.392Z,6.43
2022-12-25T08:26:14.873Z,6.97
2022-12-25T08:28:37.507Z,8.00
2022-12-25T08:30:58.719Z,7.33
2022-12-25T08:33:20.126Z,9.23
2022-12-25T08:35:41.573Z,7.20
2022-12-25T08:38:03.244Z,7.27
2022-12-25T08:40:24.455Z,6.70
2022-12-25T08:42:45.783Z,11.30
2022-12-25T08:45:09.415Z,10.40
2022-12-25T08:47:31.351Z,10.10
2022-12-25T08:49:52.822Z,11.57
2022-12-25T08:52:14.170Z,12.13
2022-12-25T08:54:36.442Z,17.93
2022-12-25T08:57:02.680Z,15.87
2022-12-25T08:59:24.364Z,13.63
2022-12-25T09:01:47.221Z,15.37
2022-12-25T09:04:09.120Z,22.60
2022-12-25T09:06:30.215Z,15.57
2022-12-25T09:08:51.529Z,16.87
2022-12-25T09:11:13.911Z,15.50
2022-12-25T09:13:34.960Z,14.03
2022-12-25T09:15:56.336Z,14.70
2022-12-25T09:18:18.724Z,12.20
2022-12-25T09:20:39.888Z,10.87
2022-12-25T09:23:01.196Z,10.83
2022-12-25T09:25:22.422Z,18.30
2022-12-25T09:27:44.237Z,23.93
2022-12-25T09:30:06.286Z,34.77
2022-12-25T09:32:27.373Z,12.73
2022-12-25T09:34:51.492Z,10.93
2022-12-25T09:37:12.635Z,9.80
2022-12-25T09:39:34.092Z,7.40
2022-12-25T09:41:56.988Z,7.60
2022-12-25T09:44:20.523Z,9.83
2022-12-25T09:46:45.859Z,9.20
2022-12-25T09:49:09.384Z,10.47
2022-12-25T09:51:35.601Z,9.40
2022-12-25T09:54:01.133Z,8.67
2022-12-25T09:56:25.492Z,8.73
2022-12-25T09:58:46.684Z,9.43
2022-12-25T10:01:17.881Z,8.57
2022-12-25T10:03:45.052Z,8.17
2022-12-25T10:06:12.951Z,8.07
2022-12-25T10:08:53.779Z,7.50
2022-12-25T10:11:21.427Z,7.23
2022-12-25T10:13:51.096Z,7.37
2022-12-25T10:16:18.272Z,7.27
2022-12-25T10:18:46.235Z,8.83
2022-12-25T10:21:13.275Z,7.63
2022-12-25T10:23:36.420Z,6.87
2022-12-25T10:25:59.102Z,10.10
2022-12-25T10:28:24.547Z,11.70
2022-12-25T10:30:46.015Z,11.63
2022-12-25T10:33:09.871Z,11.40
2022-12-25T10:35:33.380Z,10.90
2022-12-25T10:37:58.816Z,8.57
2022-12-25T10:40:27.488Z,7.83
2022-12-25T10:42:50.708Z,7.97
2022-12-25T10:45:12.115Z,7.60
2022-12-25T10:47:34.908Z,7.50
2022-12-25T10:49:56.756Z,6.40
2022-12-25T10:52:20.124Z,5.47
2022-12-25T10:54:41.160Z,5.77
2022-12-25T10:57:03.373Z,7.17
2022-12-25T10:59:27.517Z,5.87
2022-12-25T11:01:52.347Z,6.70
2022-12-25T11:04:19.987Z,6.80
2022-12-25T11:06:40.782Z,6.43
2022-12-25T11:09:02.532Z,5.17
2022-12-25T11:11:23.981Z,5.90
2022-12-25T11:13:49.971Z,6.57
2022-12-25T11:16:15.038Z,5.70
2022-12-25T11:18:44.458Z,5.40
2022-12-25T11:21:16.344Z,5.70
2022-12-25T11:23:44.593Z,5.70
2022-12-25T11:26:06.891Z,5.40
2022-12-25T11:28:28.714Z,5.03
2022-12-25T11:30:53.247Z,5.00
2022-12-25T11:33:16.445Z,4.60
2022-12-25T11:35:41.981Z,6.53
2022-12-25T11:38:04.389Z,8.37
2022-12-25T11:40:27.447Z,9.97
2022-12-25T11:42:50.950Z,6.17
2022-12-25T11:45:14.344Z,5.20
2022-12-25T11:47:38.777Z,5.67
2022-12-25T11:50:03.742Z,5.10
2022-12-25T11:52:25.754Z,5.53
2022-12-25T11:54:51.158Z,4.90
2022-12-25T11:57:12.599Z,4.90
2022-12-25T11:59:37.021Z,5.37
2022-12-25T12:02:00.264Z,4.90
2022-12-25T12:04:29.046Z,4.90
2022-12-25T12:06:55.579Z,5.27
2022-12-25T12:09:25.991Z,5.10
2022-12-25T12:11:49.244Z,4.87
2022-12-25T12:14:21.168Z,4.87
2022-12-25T12:16:42.555Z,5.00
2022-12-25T12:19:11.807Z,4.87
2022-12-25T12:21:33.057Z,4.30
2022-12-25T12:23:58.109Z,4.23
2022-12-25T12:26:20.300Z,4.17
2022-12-25T12:28:45.899Z,4.13
2022-12-25T12:31:08.780Z,4.47
2022-12-25T12:33:32.709Z,4.10
2022-12-25T12:35:53.854Z,4.43
2022-12-25T12:38:16.215Z,4.00
2022-12-25T12:40:39.765Z,4.90
2022-12-25T12:43:01.216Z,4.80
2022-12-25T12:45:26.374Z,4.90
2022-12-25T12:47:49.057Z,4.67
2022-12-25T12:50:27.032Z,4.70
2022-12-25T12:52:48.243Z,5.40
2022-12-25T12:55:12.884Z,4.50
2022-12-25T12:57:39.583Z,5.17
2022-12-25T13:00:08.617Z,5.33
2022-12-25T13:02:49.665Z,5.00
2022-12-25T13:05:15.426Z,5.27
2022-12-25T13:07:46.913Z,4.60
2022-12-25T13:10:14.045Z,4.80
2022-12-25T13:12:37.567Z,5.17
2022-12-25T13:14:59.335Z,4.90
2022-12-25T13:17:22.248Z,5.13
2022-12-25T13:19:43.908Z,4.47
2022-12-25T13:22:06.735Z,4.70
2022-12-25T13:24:28.619Z,5.30
2022-12-25T13:26:49.672Z,5.43
2022-12-25T13:29:22.706Z,4.20
2022-12-25T13:31:44.039Z,3.50
2022-12-25T13:34:06.364Z,3.73
2022-12-25T13:36:29.330Z,3.47
2022-12-25T13:38:52.311Z,3.83
2022-12-25T13:41:35.279Z,3.97
2022-12-25T13:43:58.440Z,4.20
2022-12-25T13:46:25.865Z,4.87
2022-12-25T13:48:56.040Z,5.10
2022-12-25T13:51:17.690Z,4.17
2022-12-25T13:53:38.644Z,3.90
2022-12-25T13:56:00.369Z,4.70
2022-12-25T13:58:24.821Z,3.50
2022-12-25T14:00:47.601Z,3.30
2022-12-25T14:03:16.242Z,3.00
2022-12-25T14:05:43.069Z,3.23
2022-12-25T14:08:05.465Z,3.30
2022-12-25T14:10:28.291Z,2.77
2022-12-25T14:12:50.944Z,2.60
2022-12-25T14:15:15.571Z,3.03
2022-12-25T14:17:36.555Z,2.83
2022-12-25T14:20:07.513Z,2.90
2022-12-25T14:22:32.732Z,2.70
2022-12-25T14:24:54.126Z,3.17
2022-12-25T14:27:18.840Z,3.17
2022-12-25T14:29:41.020Z,2.77
2022-12-25T14:32:04.585Z,2.67
2022-12-25T14:34:26.812Z,2.63
2022-12-25T14:36:49.958Z,2.60
2022-12-25T14:39:33.359Z,2.47
2022-12-25T14:41:55.059Z,3.07
2022-12-25T14:44:27.902Z,2.53
2022-12-25T14:46:49.246Z,2.37
2022-12-25T14:49:23.769Z,3.27
2022-12-25T14:51:45.218Z,2.73
2022-12-25T14:54:16.471Z,3.07
2022-12-25T14:56:39.243Z,3.80
2022-12-25T14:59:01.058Z,3.80
2022-12-25T15:01:23.416Z,2.93
2022-12-25T15:03:44.883Z,2.83
2022-12-25T15:06:06.930Z,2.70
2022-12-25T15:08:28.627Z,4.10
2022-12-25T15:11:01.824Z,3.70
2022-12-25T15:13:24.033Z,3.60
2022-12-25T15:15:48.717Z,4.30
2022-12-25T15:18:11.471Z,5.60
2022-12-25T15:20:33.720Z,5.47
2022-12-25T15:23:18.560Z,6.83
2022-12-25T15:25:35.885Z,5.87
2022-12-25T15:27:58.465Z,5.10
2022-12-25T15:30:19.795Z,5.47
2022-12-25T15:32:40.996Z,5.57
2022-12-25T15:35:02.244Z,19.57
2022-12-25T15:37:23.525Z,20.50
2022-12-25T15:39:45.104Z,13.93
2022-12-25T15:42:13.230Z,23.17
2022-12-25T15:44:35.663Z,15.20
2022-12-25T15:46:57.071Z,13.20
2022-12-25T15:49:18.631Z,15.83
2022-12-25T15:51:40.312Z,10.17
2022-12-25T15:54:01.347Z,9.17
2022-12-25T15:56:23.168Z,6.57
2022-12-25T15:58:44.502Z,5.47
2022-12-25T16:01:07.336Z,4.53
2022-12-25T16:03:29.171Z,4.40
2022-12-25T16:05:50.617Z,3.27
2022-12-25T16:08:11.719Z,3.60
2022-12-25T16:10:38.398Z,5.70
2022-12-25T16:13:00.411Z,6.23
2022-12-25T16:15:21.727Z,7.47
2022-12-25T16:17:44.391Z,12.53
2022-12-25T16:20:06.063Z,11.63
2022-12-25T16:22:27.318Z,15.13
2022-12-25T16:24:48.669Z,27.00
2022-12-25T16:27:09.887Z,20.97
2022-12-25T16:29:31.494Z,18.20
2022-12-25T16:31:52.726Z,15.40
2022-12-25T16:34:15.331Z,80.70
2022-12-25T16:36:37.405Z,13.93
2022-12-25T16:38:58.717Z,14.30
2022-12-25T16:41:20.023Z,4.70
2022-12-25T16:43:41.723Z,1.90
2022-12-25T16:46:08.679Z,2.00
2022-12-25T16:48:30.051Z,2.50
2022-12-25T16:50:52.557Z,2.43
2022-12-25T16:53:13.749Z,2.50
2022-12-25T16:55:36.761Z,6.43
2022-12-25T16:57:58.046Z,18.00
2022-12-25T17:00:19.547Z,49.47
2022-12-25T17:02:41.567Z,47.77
2022-12-25T17:05:02.624Z,45.27
2022-12-25T17:07:25.312Z,36.43
2022-12-25T17:09:48.204Z,33.37
2022-12-25T17:12:10.137Z,33.00
2022-12-25T17:14:31.310Z,34.67
2022-12-25T17:16:52.610Z,35.30
2022-12-25T17:19:17.270Z,28.43
2022-12-25T17:21:38.735Z,21.17
2022-12-25T17:24:03.629Z,16.07
2022-12-25T17:26:26.333Z,16.30
2022-12-25T17:28:47.723Z,16.03
2022-12-25T17:31:09.614Z,11.03
2022-12-25T17:33:30.915Z,10.07
2022-12-25T17:35:52.108Z,10.13
2022-12-25T17:38:13.428Z,9.00
2022-12-25T17:40:36.047Z,10.33
2022-12-25T17:42:57.352Z,8.67
2022-12-25T17:45:18.828Z,10.33
2022-12-25T17:47:40.185Z,10.47
2022-12-25T17:50:01.522Z,9.03
2022-12-25T17:52:22.558Z,10.90
2022-12-25T17:54:44.010Z,9.63
2022-12-25T17:57:06.446Z,10.10
2022-12-25T17:59:29.463Z,7.53
2022-12-25T18:01:50.601Z,9.23
2022-12-25T18:04:11.908Z,6.77
2022-12-25T18:06:35.102Z,8.27
2022-12-25T18:08:56.589Z,7.00
2022-12-25T18:11:20.040Z,7.33
2022-12-25T18:13:43.401Z,6.73
2022-12-25T18:16:05.670Z,6.40
2022-12-25T18:18:26.800Z,4.97
2022-12-25T18:20:48.045Z,4.87
2022-12-25T18:23:09.525Z,4.93
2022-12-25T18:25:33.595Z,7.03
2022-12-25T18:27:55.135Z,7.30
2022-12-25T18:30:17.902Z,8.20
2022-12-25T18:32:39.224Z,5.50
2022-12-25T18:35:00.543Z,4.80
2022-12-25T18:37:22.183Z,5.53
2022-12-25T18:39:43.485Z,6.07
2022-12-25T18:42:22.433Z,6.67
2022-12-25T18:44:43.451Z,6.50
2022-12-25T18:47:06.129Z,6.47
2022-12-25T18:49:27.106Z,6.67
2022-12-25T18:51:49.447Z,7.17
2022-12-25T18:54:10.720Z,6.37
2022-12-25T18:56:32.106Z,5.17
2022-12-25T18:58:53.316Z,7.17
2022-12-25T19:01:15.967Z,5.17
2022-12-25T19:03:38.484Z,5.90
2022-12-25T19:05:59.788Z,5.93
2022-12-25T19:08:21.116Z,6.23
2022-12-25T19:10:42.752Z,6.67
2022-12-25T19:13:04.111Z,6.70
2022-12-25T19:15:25.385Z,5.93
2022-12-25T19:17:46.512Z,8.10
2022-12-25T19:20:10.102Z,6.93
2022-12-25T19:22:30.937Z,6.83
2022-12-25T19:24:52.326Z,7.63
2022-12-25T19:27:13.737Z,6.97
2022-12-25T19:29:35.296Z,6.23
2022-12-25T19:31:56.552Z,5.90
2022-12-25T19:34:17.919Z,6.00
2022-12-25T19:36:40.615Z,6.10
2022-12-25T19:39:01.731Z,6.37
2022-12-25T19:41:23.384Z,7.37
2022-12-25T19:43:45.646Z,6.83
2022-12-25T19:46:08.442Z,6.40
2022-12-25T19:48:30.216Z,6.60
2022-12-25T19:50:51.648Z,7.70
2022-12-25T19:53:16.832Z,7.90
2022-12-25T19:55:38.375Z,7.63
2022-12-25T19:58:00.102Z,8.20
2022-12-25T20:00:21.732Z,7.20
2022-12-25T20:02:43.264Z,8.37
2022-12-25T20:05:04.613Z,8.07
2022-12-25T20:07:26.032Z,8.13
2022-12-25T20:09:48.742Z,9.57
2022-12-25T20:12:11.215Z,9.47
2022-12-25T20:14:32.767Z,9.47
2022-12-25T20:16:53.654Z,9.97
2022-12-25T20:19:15.386Z,13.43
2022-12-25T20:21:37.180Z,7.77
2022-12-25T20:23:58.459Z,6.73
2022-12-25T20:26:22.926Z,7.23
2022-12-25T20:28:45.019Z,7.37
2022-12-25T20:31:06.828Z,7.37
2022-12-25T20:33:28.343Z,6.30
2022-12-25T20:35:50.008Z,7.47
2022-12-25T20:38:11.429Z,6.80
2022-12-25T20:40:52.927Z,6.47
2022-12-25T20:43:15.715Z,6.40
2022-12-25T20:45:40.749Z,6.57
2022-12-25T20:48:02.452Z,6.67
2022-12-25T20:50:23.581Z,6.97
2022-12-25T20:52:44.847Z,7.60
2022-12-25T20:55:06.608Z,7.40
2022-12-25T20:57:28.506Z,7.87
2022-12-25T20:59:51.648Z,7.57
2022-12-25T21:02:34.424Z,7.33
2022-12-25T21:04:54.443Z,6.90
2022-12-25T21:07:15.925Z,6.60
2022-12-25T21:09:37.221Z,7.30
2022-12-25T21:11:58.556Z,7.53
2022-12-25T21:14:19.693Z,7.10
2022-12-25T21:16:44.266Z,7.13
2022-12-25T21:19:05.633Z,8.23
2022-12-25T21:21:26.923Z,7.20
2022-12-25T21:23:48.180Z,9.07
2022-12-25T21:26:10.424Z,7.10
2022-12-25T21:28:32.315Z,5.87
2022-12-25T21:30:53.434Z,6.80
2022-12-25T21:33:33.401Z,7.23
2022-12-25T21:35:54.719Z,7.63
2022-12-25T21:38:16.252Z,7.50
2022-12-25T21:40:38.575Z,10.43
2022-12-25T21:43:00.484Z,8.63
2022-12-25T21:45:22.533Z,6.80
2022-12-25T21:48:02.524Z,6.00
2022-12-25T21:50:42.895Z,5.10
2022-12-25T21:53:04.473Z,4.83
2022-12-25T21:55:25.683Z,6.63
2022-12-25T21:57:47.144Z,5.20
2022-12-25T22:00:09.048Z,5.03
2022-12-25T22:02:30.171Z,4.77
2022-12-25T22:04:51.437Z,4.57
2022-12-25T22:07:19.587Z,4.50
2022-12-25T22:09:40.565Z,5.60
2022-12-25T22:12:19.161Z,6.10
2022-12-25T22:14:55.494Z,5.17
2022-12-25T22:17:35.944Z,5.90
2022-12-25T22:19:57.127Z,6.77
2022-12-25T22:22:21.765Z,5.00
2022-12-25T22:24:43.236Z,4.40
2022-12-25T22:27:04.507Z,4.07
2022-12-25T22:29:25.718Z,4.00
2022-12-25T22:31:47.305Z,4.70
2022-12-25T22:34:08.665Z,4.20
2022-12-25T22:36:29.889Z,3.90
2022-12-25T22:38:52.406Z,3.90
2022-12-25T22:41:13.621Z,4.20
2022-12-25T22:44:14.536Z,4.57
2022-12-25T22:46:16.664Z,4.77
2022-12-25T22:48:37.777Z,4.70
2022-12-25T22:51:02.313Z,5.00
2022-12-25T22:53:23.167Z,4.33
2022-12-25T22:55:47.505Z,4.17
2022-12-25T22:58:08.519Z,4.50
2022-12-25T23:00:30.059Z,4.80
2022-12-25T23:02:51.412Z,5.03
2022-12-25T23:05:12.585Z,4.47
2022-12-25T23:07:33.935Z,4.77
2022-12-25T23:09:55.153Z,4.40
2022-12-25T23:12:40.843Z,5.03
2022-12-25T23:15:02.145Z,4.33
2022-12-25T23:17:40.857Z,4.73
2022-12-25T23:20:19.745Z,5.43
2022-12-25T23:22:58.931Z,5.10
2022-12-25T23:25:49.493Z,5.20
2022-12-25T23:28:12.388Z,5.10
2022-12-25T23:30:33.250Z,4.30
2022-12-25T23:32:54.212Z,4.67
2022-12-25T23:35:15.519Z,4.97
2022-12-25T23:37:36.757Z,5.10
2022-12-25T23:39:58.264Z,6.10
2022-12-25T23:42:19.543Z,5.90
2022-12-25T23:44:42.138Z,5.33
2022-12-25T23:47:03.773Z,4.70
2022-12-25T23:49:25.427Z,5.50
2022-12-25T23:51:47.667Z,4.83
2022-12-25T23:54:08.934Z,5.57
2022-12-25T23:56:30.310Z,6.13
2022-12-25T23:58:52.360Z,6.83
